createdAt,value
2022-07-30T00:00:00.016Z,14.51
2022-07-30T00:03:01.957Z,14.47
2022-07-30T00:06:03.809Z,14.43
2022-07-30T00:09:05.698Z,14.40
2022-07-30T00:12:08.735Z,14.36
2022-07-30T00:15:10.581Z,14.35
2022-07-30T00:18:13.350Z,14.30
2022-07-30T00:21:34.743Z,14.32
2022-07-30T00:24:36.738Z,14.30
2022-07-30T00:27:40.114Z,14.22
2022-07-30T00:30:41.866Z,14.18
2022-07-30T00:33:43.870Z,14.11
2022-07-30T00:36:45.622Z,14.10
2022-07-30T00:39:47.598Z,14.04
2022-07-30T00:42:49.450Z,14.07
2022-07-30T00:45:51.398Z,13.98
2022-07-30T00:48:53.658Z,13.93
2022-07-30T00:51:55.367Z,13.90
2022-07-30T00:54:57.047Z,13.86
2022-07-30T00:57:58.849Z,13.85
2022-07-30T01:01:00.950Z,13.82
2022-07-30T01:04:03.819Z,13.80
2022-07-30T01:07:05.898Z,13.78
2022-07-30T01:10:09.318Z,13.73
2022-07-30T01:13:11.283Z,13.72
2022-07-30T01:16:15.155Z,13.73
2022-07-30T01:19:40.709Z,13.66
2022-07-30T01:23:02.997Z,13.58
2022-07-30T01:26:08.023Z,13.49
2022-07-30T01:29:10.979Z,13.46
2022-07-30T01:32:13.713Z,13.41
2022-07-30T01:35:15.994Z,13.36
2022-07-30T01:38:21.923Z,13.35
2022-07-30T01:41:24.359Z,13.33
2022-07-30T01:44:26.980Z,13.29
2022-07-30T01:47:29.619Z,13.27
2022-07-30T01:50:31.942Z,13.28
2022-07-30T01:53:37.195Z,13.27
2022-07-30T01:56:39.457Z,13.26
2022-07-30T01:59:44.064Z,13.25
2022-07-30T02:02:46.153Z,13.21
2022-07-30T02:05:53.699Z,13.20
2022-07-30T02:08:56.895Z,13.19
2022-07-30T02:12:20.482Z,13.21
2022-07-30T02:15:22.097Z,13.17
2022-07-30T02:18:50.973Z,13.17
2022-07-30T02:22:01.711Z,13.15
2022-07-30T02:25:07.638Z,13.12
2022-07-30T02:28:12.374Z,13.10
2022-07-30T02:31:18.078Z,13.05
2022-07-30T02:34:22.889Z,13.02
2022-07-30T02:37:42.929Z,13.02
2022-07-30T02:40:46.741Z,12.99
2022-07-30T02:43:50.147Z,13.07
2022-07-30T02:46:54.844Z,13.03
2022-07-30T02:50:07.849Z,12.99
2022-07-30T02:53:11.144Z,12.96
2022-07-30T02:56:16.087Z,13.00
2022-07-30T02:59:19.426Z,12.96
2022-07-30T03:02:27.201Z,13.02
2022-07-30T03:05:31.877Z,12.99
2022-07-30T03:08:35.374Z,12.99
2022-07-30T03:11:37.267Z,12.98
2022-07-30T03:14:39.664Z,12.93
2022-07-30T03:17:45.023Z,12.88
2022-07-30T03:20:50.087Z,12.86
2022-07-30T03:23:54.014Z,12.83
2022-07-30T03:26:56.851Z,12.81
2022-07-30T03:29:59.279Z,12.78
2022-07-30T03:33:00.892Z,12.78
2022-07-30T03:36:03.619Z,12.79
2022-07-30T03:39:05.772Z,12.74
2022-07-30T03:42:08.249Z,12.72
2022-07-30T03:45:13.735Z,12.74
2022-07-30T03:48:15.765Z,12.72
2022-07-30T03:51:22.086Z,12.70
2022-07-30T03:54:23.902Z,12.76
2022-07-30T03:57:40.798Z,12.75
2022-07-30T04:00:43.102Z,12.83
2022-07-30T04:03:45.648Z,12.83
2022-07-30T04:06:47.829Z,12.84
2022-07-30T04:09:49.626Z,12.82
2022-07-30T04:13:14.695Z,12.82
2022-07-30T04:16:39.336Z,12.79
2022-07-30T04:19:49.301Z,12.79
2022-07-30T04:22:51.609Z,12.86
2022-07-30T04:25:53.326Z,12.87
2022-07-30T04:28:55.066Z,12.92
2022-07-30T04:31:57.908Z,12.98
2022-07-30T04:35:08.988Z,13.04
2022-07-30T04:38:36.592Z,13.07
2022-07-30T04:41:48.740Z,13.03
2022-07-30T04:45:14.593Z,13.01
2022-07-30T04:48:42.618Z,12.98
2022-07-30T04:51:51.119Z,13.00
2022-07-30T04:54:56.275Z,13.01
2022-07-30T04:57:58.142Z,13.02
2022-07-30T05:01:02.218Z,13.05
2022-07-30T05:04:07.376Z,13.03
2022-07-30T05:07:13.709Z,13.08
2022-07-30T05:10:15.528Z,13.07
2022-07-30T05:13:17.679Z,13.06
2022-07-30T05:16:19.487Z,13.11
2022-07-30T05:19:22.865Z,13.11
2022-07-30T05:22:27.619Z,13.15
2022-07-30T05:25:29.950Z,13.18
2022-07-30T05:28:42.277Z,13.22
2022-07-30T05:31:48.930Z,13.22
2022-07-30T05:34:51.468Z,13.23
2022-07-30T05:37:53.539Z,13.25
2022-07-30T05:40:55.304Z,13.30
2022-07-30T05:44:30.191Z,13.37
2022-07-30T05:47:31.883Z,13.51
2022-07-30T05:50:34.625Z,13.55
2022-07-30T05:53:36.340Z,13.63
2022-07-30T05:56:58.354Z,13.68
2022-07-30T06:00:10.612Z,13.73
2022-07-30T06:03:18.674Z,13.80
2022-07-30T06:06:42.944Z,13.86
2022-07-30T06:09:45.519Z,13.91
2022-07-30T06:12:48.244Z,13.93
2022-07-30T06:15:51.724Z,13.92
2022-07-30T06:18:53.444Z,13.97
2022-07-30T06:22:07.172Z,13.99
2022-07-30T06:25:14.802Z,14.00
2022-07-30T06:28:36.979Z,13.99
2022-07-30T06:31:41.616Z,13.98
2022-07-30T06:34:45.801Z,13.98
2022-07-30T06:38:05.564Z,13.91
2022-07-30T06:41:15.831Z,13.92
2022-07-30T06:44:28.342Z,13.95
2022-07-30T06:48:03.795Z,13.97
2022-07-30T06:51:07.042Z,13.98
2022-07-30T06:54:10.038Z,14.02
2022-07-30T06:57:16.840Z,14.05
2022-07-30T07:00:18.998Z,14.05
2022-07-30T07:03:21.595Z,14.08
2022-07-30T07:06:24.222Z,14.08
2022-07-30T07:09:25.995Z,14.07
2022-07-30T07:12:53.671Z,14.10
2022-07-30T07:15:57.319Z,14.14
2022-07-30T07:19:01.062Z,14.20
2022-07-30T07:22:02.939Z,14.23
2022-07-30T07:25:05.383Z,14.28
2022-07-30T07:28:12.697Z,14.36
2022-07-30T07:32:02.776Z,14.46
2022-07-30T07:34:39.674Z,14.52
2022-07-30T07:37:41.410Z,14.62
2022-07-30T07:40:47.359Z,14.83
2022-07-30T07:43:49.647Z,15.00
2022-07-30T07:46:59.759Z,15.13
2022-07-30T07:50:07.286Z,15.17
2022-07-30T07:53:09.154Z,15.34
2022-07-30T07:56:10.947Z,15.37
2022-07-30T07:59:14.574Z,15.35
2022-07-30T08:02:19.645Z,15.41
2022-07-30T08:06:00.794Z,15.34
2022-07-30T08:09:13.987Z,15.39
2022-07-30T08:12:34.771Z,15.47
2022-07-30T08:16:12.667Z,15.55
2022-07-30T08:19:33.053Z,15.58
2022-07-30T08:22:54.970Z,15.65
2022-07-30T08:26:00.831Z,15.78
2022-07-30T08:29:02.871Z,15.93
2022-07-30T08:32:05.326Z,15.97
2022-07-30T08:35:09.799Z,16.06
2022-07-30T08:38:13.538Z,16.09
2022-07-30T08:41:19.218Z,16.21
2022-07-30T08:44:21.932Z,16.49
2022-07-30T08:47:32.649Z,16.92
2022-07-30T08:50:46.657Z,17.18
2022-07-30T08:54:07.051Z,17.22
2022-07-30T08:57:10.179Z,17.32
2022-07-30T09:00:14.225Z,17.13
2022-07-30T09:03:16.682Z,16.97
2022-07-30T09:06:19.570Z,16.81
2022-07-30T09:09:21.370Z,16.88
2022-07-30T09:12:44.910Z,16.89
2022-07-30T09:15:46.829Z,17.00
2022-07-30T09:18:49.265Z,17.03
2022-07-30T09:21:58.294Z,17.06
2022-07-30T09:25:11.491Z,17.32
2022-07-30T09:28:41.988Z,17.51
2022-07-30T09:32:02.154Z,17.67
2022-07-30T09:35:22.947Z,17.66
2022-07-30T09:38:51.954Z,17.81
2022-07-30T09:42:28.077Z,18.05
2022-07-30T09:45:57.159Z,18.09
2022-07-30T09:49:32.853Z,18.18
2022-07-30T09:52:35.448Z,18.28
2022-07-30T09:55:41.254Z,18.56
2022-07-30T09:58:45.385Z,18.07
2022-07-30T10:02:01.139Z,17.99
2022-07-30T10:05:25.021Z,17.86
2022-07-30T10:08:39.003Z,17.84
2022-07-30T10:11:41.407Z,17.94
2022-07-30T10:14:46.462Z,18.16
2022-07-30T10:17:50.714Z,18.32
2022-07-30T10:21:12.729Z,18.36
2022-07-30T10:24:37.707Z,18.39
2022-07-30T10:27:57.679Z,18.34
2022-07-30T10:31:08.381Z,18.49
2022-07-30T10:34:30.267Z,18.42
2022-07-30T10:37:50.370Z,18.81
2022-07-30T10:41:16.273Z,19.09
2022-07-30T10:44:29.810Z,19.26
2022-07-30T10:47:44.801Z,19.25
2022-07-30T10:50:52.595Z,18.80
2022-07-30T10:53:54.503Z,18.72
2022-07-30T10:57:22.974Z,18.90
2022-07-30T11:00:35.830Z,18.96
2022-07-30T11:03:45.185Z,19.13
2022-07-30T11:06:47.229Z,18.92
2022-07-30T11:10:09.227Z,18.90
2022-07-30T11:13:11.511Z,18.71
2022-07-30T11:16:13.299Z,18.63
2022-07-30T11:19:55.086Z,18.68
2022-07-30T11:22:44.855Z,18.43
2022-07-30T11:25:51.102Z,18.41
2022-07-30T11:28:53.946Z,18.28
2022-07-30T11:32:00.212Z,18.17
2022-07-30T11:35:25.744Z,18.10
2022-07-30T11:39:11.741Z,18.04
2022-07-30T11:42:33.991Z,17.99
2022-07-30T11:45:35.647Z,17.82
2022-07-30T11:48:39.698Z,17.71
2022-07-30T11:51:42.550Z,17.70
2022-07-30T11:54:54.814Z,17.70
2022-07-30T11:57:56.819Z,17.72
2022-07-30T12:01:09.426Z,17.95
2022-07-30T12:04:11.459Z,18.27
2022-07-30T12:07:13.197Z,19.03
2022-07-30T12:10:25.593Z,19.11
2022-07-30T12:13:43.496Z,19.32
2022-07-30T12:16:52.052Z,20.09
2022-07-30T12:19:53.767Z,20.87
2022-07-30T12:22:56.927Z,20.32
2022-07-30T12:25:58.809Z,20.31
2022-07-30T12:29:06.664Z,20.15
2022-07-30T12:32:08.499Z,20.03
2022-07-30T12:35:11.103Z,19.90
2022-07-30T12:38:13.607Z,19.95
2022-07-30T12:41:15.350Z,20.22
2022-07-30T12:44:46.280Z,20.26
2022-07-30T12:47:50.126Z,19.93
2022-07-30T12:51:07.622Z,19.97
2022-07-30T12:54:19.546Z,19.95
2022-07-30T12:57:21.338Z,19.75
2022-07-30T13:00:24.813Z,19.68
2022-07-30T13:03:28.228Z,19.77
2022-07-30T13:06:29.977Z,19.76
2022-07-30T13:09:31.694Z,19.85
2022-07-30T13:12:33.447Z,20.02
2022-07-30T13:15:35.157Z,20.09
2022-07-30T13:18:39.225Z,19.96
2022-07-30T13:21:49.503Z,19.86
2022-07-30T13:24:51.936Z,19.94
2022-07-30T13:27:53.648Z,20.18
2022-07-30T13:30:56.801Z,20.41
2022-07-30T13:33:59.113Z,20.57
2022-07-30T13:37:01.068Z,20.67
2022-07-30T13:40:03.371Z,20.42
2022-07-30T13:43:05.197Z,19.97
2022-07-30T13:46:06.979Z,20.08
2022-07-30T13:49:08.798Z,20.73
2022-07-30T13:52:11.222Z,21.19
2022-07-30T13:55:12.967Z,21.58
2022-07-30T13:58:14.779Z,22.00
2022-07-30T14:01:17.742Z,22.24
2022-07-30T14:04:19.697Z,21.70
2022-07-30T14:07:21.408Z,21.63
2022-07-30T14:10:23.680Z,21.65
2022-07-30T14:13:25.518Z,21.37
2022-07-30T14:16:44.587Z,20.95
2022-07-30T14:19:47.371Z,20.46
2022-07-30T14:22:49.111Z,20.63
2022-07-30T14:25:50.791Z,20.34
2022-07-30T14:28:52.552Z,20.24
2022-07-30T14:31:54.590Z,20.50
2022-07-30T14:34:57.004Z,20.28
2022-07-30T14:37:58.810Z,20.38
2022-07-30T14:41:00.409Z,20.17
2022-07-30T14:44:02.728Z,19.96
2022-07-30T14:47:05.177Z,19.84
2022-07-30T14:50:09.705Z,19.68
2022-07-30T14:53:11.539Z,19.48
2022-07-30T14:56:13.720Z,19.17
2022-07-30T14:59:16.875Z,19.17
2022-07-30T15:02:18.647Z,19.06
2022-07-30T15:05:20.441Z,18.88
2022-07-30T15:08:22.154Z,18.83
2022-07-30T15:11:24.445Z,18.76
2022-07-30T15:14:28.414Z,18.66
2022-07-30T15:17:30.325Z,18.54
2022-07-30T15:20:32.102Z,18.49
2022-07-30T15:23:33.994Z,18.53
2022-07-30T15:26:35.774Z,18.26
2022-07-30T15:29:37.627Z,17.64
2022-07-30T15:32:40.000Z,17.40
2022-07-30T15:35:42.331Z,17.28
2022-07-30T15:38:44.627Z,17.32
2022-07-30T15:41:47.931Z,17.25
2022-07-30T15:45:15.498Z,17.30
2022-07-30T15:48:15.622Z,17.20
2022-07-30T15:51:27.840Z,17.19
2022-07-30T15:54:29.634Z,17.20
2022-07-30T15:57:31.706Z,17.34
2022-07-30T16:00:33.622Z,17.51
2022-07-30T16:03:38.927Z,17.68
2022-07-30T16:06:41.744Z,17.79
2022-07-30T16:09:43.478Z,17.96
2022-07-30T16:12:45.240Z,18.24
2022-07-30T16:15:46.960Z,18.71
2022-07-30T16:18:48.694Z,19.06
2022-07-30T16:21:50.466Z,18.90
2022-07-30T16:24:52.616Z,19.10
2022-07-30T16:27:54.253Z,18.99
2022-07-30T16:30:56.010Z,18.66
2022-07-30T16:33:58.003Z,18.45
2022-07-30T16:37:00.519Z,18.33
2022-07-30T16:40:06.591Z,18.30
2022-07-30T16:43:08.313Z,18.53
2022-07-30T16:46:11.054Z,18.56
2022-07-30T16:49:12.924Z,18.57
2022-07-30T16:52:15.954Z,18.54
2022-07-30T16:55:17.719Z,18.49
2022-07-30T16:58:19.479Z,18.55
2022-07-30T17:01:24.003Z,18.55
2022-07-30T17:04:25.763Z,18.39
2022-07-30T17:07:28.901Z,18.29
2022-07-30T17:10:30.677Z,18.20
2022-07-30T17:13:34.296Z,18.18
2022-07-30T17:16:36.022Z,18.18
2022-07-30T17:19:39.214Z,18.20
2022-07-30T17:22:43.152Z,18.26
2022-07-30T17:25:45.109Z,18.37
2022-07-30T17:28:46.848Z,18.41
2022-07-30T17:31:49.069Z,18.39
2022-07-30T17:34:50.847Z,18.32
2022-07-30T17:37:52.878Z,18.24
2022-07-30T17:40:54.883Z,18.22
2022-07-30T17:43:56.794Z,18.27
2022-07-30T17:46:58.531Z,18.26
2022-07-30T17:50:00.326Z,18.14
2022-07-30T17:53:03.691Z,18.04
2022-07-30T17:56:05.958Z,18.00
2022-07-30T17:59:13.837Z,17.92
2022-07-30T18:02:15.977Z,17.86
2022-07-30T18:05:18.582Z,17.81
2022-07-30T18:08:20.312Z,17.79
2022-07-30T18:11:23.758Z,17.78
2022-07-30T18:14:25.806Z,17.77
2022-07-30T18:17:27.434Z,17.77
2022-07-30T18:20:30.930Z,17.84
2022-07-30T18:23:34.930Z,17.87
2022-07-30T18:26:38.620Z,17.88
2022-07-30T18:29:40.865Z,17.82
2022-07-30T18:32:43.377Z,17.77
2022-07-30T18:35:45.202Z,17.69
2022-07-30T18:38:49.838Z,17.63
2022-07-30T18:41:53.274Z,17.62
2022-07-30T18:44:55.460Z,17.59
2022-07-30T18:47:57.366Z,17.54
2022-07-30T18:50:59.219Z,17.52
2022-07-30T18:54:01.100Z,17.48
2022-07-30T18:57:03.682Z,17.47
2022-07-30T19:00:08.733Z,17.46
2022-07-30T19:03:17.387Z,17.47
2022-07-30T19:06:21.476Z,17.46
2022-07-30T19:09:23.389Z,17.39
2022-07-30T19:12:27.541Z,17.36
2022-07-30T19:15:29.733Z,17.33
2022-07-30T19:18:31.390Z,17.32
2022-07-30T19:21:33.409Z,17.25
2022-07-30T19:24:35.174Z,17.22
2022-07-30T19:27:37.096Z,17.19
2022-07-30T19:30:39.274Z,17.16
2022-07-30T19:33:42.862Z,17.09
2022-07-30T19:36:44.594Z,17.02
2022-07-30T19:40:05.490Z,16.96
2022-07-30T19:43:10.057Z,16.93
2022-07-30T19:46:12.114Z,16.95
2022-07-30T19:49:13.908Z,16.96
2022-07-30T19:52:23.621Z,16.96
2022-07-30T19:55:34.970Z,16.98
2022-07-30T19:58:38.049Z,16.90
2022-07-30T20:01:43.236Z,16.89
2022-07-30T20:04:45.323Z,16.89
2022-07-30T20:07:48.963Z,16.90
2022-07-30T20:10:50.844Z,16.85
2022-07-30T20:13:52.557Z,16.83
2022-07-30T20:16:54.279Z,16.82
2022-07-30T20:19:57.992Z,16.81
2022-07-30T20:23:01.199Z,16.80
2022-07-30T20:26:07.479Z,16.79
2022-07-30T20:29:19.041Z,16.78
2022-07-30T20:32:23.475Z,16.73
2022-07-30T20:35:26.585Z,16.69
2022-07-30T20:38:29.550Z,16.66
2022-07-30T20:41:31.486Z,16.65
2022-07-30T20:44:43.669Z,16.58
2022-07-30T20:47:55.385Z,16.52
2022-07-30T20:50:57.251Z,16.49
2022-07-30T20:53:59.235Z,16.49
2022-07-30T20:57:01.103Z,16.52
2022-07-30T21:00:04.339Z,16.53
2022-07-30T21:03:13.734Z,16.60
2022-07-30T21:06:16.489Z,16.54
2022-07-30T21:09:18.482Z,16.54
2022-07-30T21:12:32.545Z,16.55
2022-07-30T21:15:36.190Z,16.57
2022-07-30T21:18:50.330Z,16.65
2022-07-30T21:21:54.305Z,16.72
2022-07-30T21:24:56.123Z,16.74
2022-07-30T21:27:58.416Z,16.75
2022-07-30T21:31:01.717Z,16.74
2022-07-30T21:34:03.879Z,16.69
2022-07-30T21:37:05.719Z,16.72
2022-07-30T21:40:09.188Z,16.73
2022-07-30T21:43:11.423Z,16.72
2022-07-30T21:46:13.727Z,16.71
2022-07-30T21:49:15.537Z,16.76
2022-07-30T21:52:17.881Z,16.78
2022-07-30T21:55:21.490Z,16.88
2022-07-30T21:58:26.051Z,16.87
2022-07-30T22:01:28.314Z,16.89
2022-07-30T22:04:34.747Z,16.88
2022-07-30T22:07:36.919Z,16.84
2022-07-30T22:10:41.360Z,16.72
2022-07-30T22:13:53.464Z,16.56
2022-07-30T22:16:56.491Z,16.44
2022-07-30T22:19:58.177Z,16.36
2022-07-30T22:23:02.475Z,16.28
2022-07-30T22:26:06.334Z,16.22
2022-07-30T22:29:08.159Z,16.18
2022-07-30T22:32:11.909Z,16.12
2022-07-30T22:35:31.980Z,16.09
2022-07-30T22:38:35.721Z,16.09
2022-07-30T22:41:37.498Z,16.07
2022-07-30T22:44:39.988Z,16.10
2022-07-30T22:47:50.693Z,16.09
2022-07-30T22:50:55.994Z,16.01
2022-07-30T22:54:12.387Z,15.97
2022-07-30T22:57:14.826Z,15.95
2022-07-30T23:00:27.328Z,15.93
2022-07-30T23:03:30.137Z,15.89
2022-07-30T23:06:33.207Z,15.90
2022-07-30T23:09:49.233Z,15.93
2022-07-30T23:12:53.923Z,15.91
2022-07-30T23:15:55.663Z,15.92
2022-07-30T23:18:57.363Z,15.95
2022-07-30T23:21:59.080Z,15.96
2022-07-30T23:25:00.949Z,15.94
2022-07-30T23:28:02.684Z,15.95
2022-07-30T23:31:05.018Z,15.97
2022-07-30T23:34:06.725Z,15.99
2022-07-30T23:37:11.754Z,16.00
2022-07-30T23:40:19.582Z,15.99
2022-07-30T23:43:21.325Z,15.98
2022-07-30T23:46:23.037Z,15.94
2022-07-30T23:49:24.821Z,15.91
2022-07-30T23:52:26.590Z,15.90
2022-07-30T23:55:29.232Z,15.90
2022-07-30T23:58:30.982Z,15.91
